Time;durP1;ratioP1;P1;durP2;ratioP2;P2;SDS_P1;SDS_P2;PMS_P1;PMS_P2;Temp;Humidity;BMP_temperature;BMP_pressure;BME280_temperature;BME280_humidity;BME280_pressure;Samples;Min_cycle;Max_cycle;Signal;HPM_P1;HPM_P2
2024/03/25 00:02:02;;;;;;;;;;;;;;;7.31;64.43;96993.50;5037707;28;20020;-78
2024/03/25 00:04:28;;;;;;;;;;;;;;;7.32;64.09;96992.41;5045512;28;19925;-77
2024/03/25 00:06:58;;;;;;;;;;;;;;;7.20;64.36;96993.00;5033188;28;19958;-77
2024/03/25 00:09:25;;;;;;;;;;;;;;;7.33;63.94;96989.38;5034459;28;19931;-77
2024/03/25 00:11:54;;;;;;;;;;;;;;;7.27;64.45;96992.53;5042778;28;19928;-76
2024/03/25 00:14:20;;;;;;;;;;;;;;;7.19;64.69;96988.69;5024800;28;19991;-77
2024/03/25 00:16:47;;;;;;;;;;;;;;;7.19;64.32;96979.78;5030767;28;19981;-78
2024/03/25 00:19:13;;;;;;;;;;;;;;;7.14;64.95;96988.84;5080576;28;19932;-78
2024/03/25 00:21:39;;;;;;;;;;;;;;;7.06;64.72;96982.28;5047004;28;19928;-77
2024/03/25 00:24:07;;;;;;;;;;;;;;;7.05;64.96;96975.28;5043319;28;20015;-78
2024/03/25 00:26:33;;;;;;;;;;;;;;;7.04;65.20;96979.09;5045049;28;19924;-78
2024/03/25 00:29:00;;;;;;;;;;;;;;;7.06;65.35;96978.78;5041269;28;19935;-77
2024/03/25 00:31:26;;;;;;;;;;;;;;;7.11;65.01;96988.66;5027298;28;19967;-76
2024/03/25 00:33:52;;;;;;;;;;;;;;;7.17;65.46;96982.00;5048623;28;20037;-77
2024/03/25 00:36:18;;;;;;;;;;;;;;;7.05;65.11;96982.59;5054751;28;20367;-77
2024/03/25 00:38:45;;;;;;;;;;;;;;;7.13;65.18;96981.81;5055729;28;20299;-77
2024/03/25 00:41:12;;;;;;;;;;;;;;;7.00;64.63;96983.53;5051599;28;19925;-78
2024/03/25 00:43:38;;;;;;;;;;;;;;;6.94;65.01;96978.56;5041208;28;19925;-77
2024/03/25 00:46:05;;;;;;;;;;;;;;;7.01;65.35;96974.31;5032645;28;19924;-86
2024/03/25 00:48:32;;;;;;;;;;;;;;;7.00;64.88;96980.81;5032469;28;19925;-86
2024/03/25 00:50:58;;;;;;;;;;;;;;;7.01;64.77;96984.31;5036051;28;19932;-86
2024/03/25 00:57:00;;;;;;;;;;;;;;;6.94;64.68;96975.88;5053432;28;19928;-86
2024/03/25 00:59:26;;;;;;;;;;;;;;;6.78;64.94;96984.38;5033026;28;19925;-85
2024/03/25 01:01:52;;;;;;;;;;;;;;;6.90;64.91;96981.09;5063136;28;19936;-86
2024/03/25 01:04:19;;;;;;;;;;;;;;;6.92;64.76;96978.06;5029013;28;20392;-85
2024/03/25 01:06:45;;;;;;;;;;;;;;;6.91;64.42;96985.38;5046933;28;20027;-90
2024/03/25 01:09:14;;;;;;;;;;;;;;;6.86;64.63;96984.72;5043567;28;21340;-89
2024/03/25 01:11:41;;;;;;;;;;;;;;;6.92;64.81;96994.25;5057771;28;19935;-88
2024/03/25 01:14:08;;;;;;;;;;;;;;;6.98;64.81;96977.66;5044922;28;19932;-88
2024/03/25 01:19:46;;;;;;;;;;;;;;;7.10;64.18;96987.84;5021901;28;20525;-89
2024/03/25 01:22:12;;;;;;;;;;;;;;;7.19;64.22;96990.56;5048910;28;19948;-87
2024/03/25 01:24:39;;;;;;;;;;;;;;;7.13;63.46;96989.91;5027444;28;20376;-89
2024/03/25 01:27:06;;;;;;;;;;;;;;;7.07;63.47;96972.25;5027874;28;19925;-88
2024/03/25 01:29:34;;;;;;;;;;;;;;;7.08;63.06;96988.19;5041235;28;19933;-89
2024/03/25 01:32:00;;;;;;;;;;;;;;;7.06;63.78;96989.59;5063386;28;19967;-89
2024/03/25 01:34:27;;;;;;;;;;;;;;;7.05;62.89;96988.00;5026027;28;19932;-89
2024/03/25 01:36:53;;;;;;;;;;;;;;;6.97;63.04;96988.72;5041878;28;19936;-89
2024/03/25 01:39:20;;;;;;;;;;;;;;;7.05;63.10;96988.00;5041446;28;19928;-89
2024/03/25 01:41:47;;;;;;;;;;;;;;;6.99;63.48;96986.53;5044882;28;19939;-88
2024/03/25 01:44:16;;;;;;;;;;;;;;;7.05;63.29;96990.69;5047078;28;19932;-87
2024/03/25 01:46:43;;;;;;;;;;;;;;;7.05;63.12;96979.88;5045720;28;19994;-88
2024/03/25 01:49:10;;;;;;;;;;;;;;;7.03;62.43;96982.09;5071776;28;19925;-89
2024/03/25 01:51:35;;;;;;;;;;;;;;;7.05;63.19;96986.09;5077293;28;19924;-88
2024/03/25 01:54:03;;;;;;;;;;;;;;;7.24;62.74;96985.03;5044722;28;19924;-89
2024/03/25 01:56:29;;;;;;;;;;;;;;;7.13;62.26;96989.91;5041851;28;19924;-80
2024/03/25 01:58:56;;;;;;;;;;;;;;;7.20;62.31;96987.59;5047369;28;19931;-80
2024/03/25 02:01:21;;;;;;;;;;;;;;;7.15;62.48;96986.94;5035215;28;20582;-81
2024/03/25 02:03:49;;;;;;;;;;;;;;;7.14;61.89;96988.84;5070036;28;19932;-81
2024/03/25 02:06:15;;;;;;;;;;;;;;;7.13;62.08;96984.53;5036706;28;19925;-82
2024/03/25 02:08:42;;;;;;;;;;;;;;;7.09;62.56;96989.78;5073319;28;19954;-81
2024/03/25 02:11:08;;;;;;;;;;;;;;;7.14;61.97;96988.84;5056101;28;20371;-80
2024/03/25 02:13:35;;;;;;;;;;;;;;;7.18;61.86;96989.00;5041834;28;19981;-82
2024/03/25 02:16:01;;;;;;;;;;;;;;;7.07;62.03;96988.47;5068478;28;19924;-88
2024/03/25 02:18:28;;;;;;;;;;;;;;;7.07;62.05;96991.16;5038582;28;20396;-81
2024/03/25 02:20:55;;;;;;;;;;;;;;;7.14;62.29;96988.84;5037359;28;19924;-82
2024/03/25 02:23:23;;;;;;;;;;;;;;;7.06;62.24;96997.69;5032261;28;19962;-82
2024/03/25 02:25:50;;;;;;;;;;;;;;;7.11;61.69;96988.66;5049285;28;19928;-81
2024/03/25 02:28:17;;;;;;;;;;;;;;;7.08;62.03;96990.06;5024290;28;20437;-81
2024/03/25 02:30:43;;;;;;;;;;;;;;;7.17;62.12;96998.22;5061205;28;19924;-83
2024/03/25 02:33:10;;;;;;;;;;;;;;;7.18;61.37;96995.19;5058292;28;19978;-81
2024/03/25 02:35:36;;;;;;;;;;;;;;;7.08;62.26;97001.69;5031923;28;19925;-81
2024/03/25 02:38:03;;;;;;;;;;;;;;;7.13;61.04;96992.63;5041698;28;19939;-83
2024/03/25 02:40:29;;;;;;;;;;;;;;;7.12;61.42;97001.84;5057183;28;20421;-80
2024/03/25 02:42:57;;;;;;;;;;;;;;;7.22;61.63;97003.47;5047224;28;19925;-82
2024/03/25 02:45:26;;;;;;;;;;;;;;;7.22;61.62;97006.97;5069568;28;19929;-83
2024/03/25 02:47:53;;;;;;;;;;;;;;;7.20;61.07;97003.78;5038583;28;20130;-82
2024/03/25 02:50:19;;;;;;;;;;;;;;;7.19;61.39;97002.22;5037236;28;19937;-80
2024/03/25 02:52:45;;;;;;;;;;;;;;;7.15;61.53;97001.22;5048624;28;19928;-81
2024/03/25 02:55:11;;;;;;;;;;;;;;;7.19;61.78;97002.22;5044388;28;19929;-80
2024/03/25 02:57:38;;;;;;;;;;;;;;;7.17;61.69;97009.81;5058906;28;19925;-81
2024/03/25 03:00:06;;;;;;;;;;;;;;;7.11;62.06;97002.94;5052515;28;19924;-81
2024/03/25 03:02:34;;;;;;;;;;;;;;;7.28;62.03;97003.03;5034693;28;19931;-81
2024/03/25 03:05:02;;;;;;;;;;;;;;;7.31;61.43;97001.63;5042717;28;19928;-80
2024/03/25 03:07:33;;;;;;;;;;;;;;;7.38;61.34;97001.94;5053807;28;19928;-87
2024/03/25 03:09:59;;;;;;;;;;;;;;;7.22;61.16;97001.56;5040501;28;19933;-88
2024/03/25 03:12:25;;;;;;;;;;;;;;;7.26;61.96;97001.75;5041884;28;19971;-86
2024/03/25 03:14:51;;;;;;;;;;;;;;;7.26;61.38;97002.53;5044834;28;19931;-88
2024/03/25 03:17:22;;;;;;;;;;;;;;;7.17;61.65;97015.22;5030620;28;20399;-87
2024/03/25 03:19:48;;;;;;;;;;;;;;;7.19;61.67;97004.91;5054470;28;19963;-88
2024/03/25 03:22:18;;;;;;;;;;;;;;;7.16;62.00;97013.63;5069822;28;20062;-87
2024/03/25 03:24:43;;;;;;;;;;;;;;;7.08;62.14;97019.75;5042119;28;19964;-89
2024/03/25 03:27:10;;;;;;;;;;;;;;;7.11;62.09;97016.47;5061766;28;19920;-87
2024/03/25 03:29:36;;;;;;;;;;;;;;;7.08;62.67;97008.97;5045488;28;21663;-87
2024/03/25 03:32:03;;;;;;;;;;;;;;;7.18;62.65;97021.41;5037933;28;19951;-87
2024/03/25 03:34:30;;;;;;;;;;;;;;;7.24;62.35;97023.66;5027354;28;19925;-86
2024/03/25 03:36:56;;;;;;;;;;;;;;;7.11;62.53;97024.56;5072416;28;20028;-86
2024/03/25 03:39:22;;;;;;;;;;;;;;;7.07;62.62;97020.88;5030248;28;19977;-86
2024/03/25 03:41:49;;;;;;;;;;;;;;;7.21;62.12;97013.50;5070244;28;19924;-86
2024/03/25 03:44:15;;;;;;;;;;;;;;;7.23;62.22;97024.78;5055204;28;19928;-86
2024/03/25 03:46:42;;;;;;;;;;;;;;;7.13;62.65;97030.44;5036686;28;19928;-86
2024/03/25 03:49:08;;;;;;;;;;;;;;;7.20;61.77;97033.50;5075344;28;19924;-87
2024/03/25 03:51:37;;;;;;;;;;;;;;;7.25;62.28;97033.38;5072763;28;19988;-86
2024/03/25 03:54:03;;;;;;;;;;;;;;;7.06;62.70;97032.78;5075789;28;19932;-87
2024/03/25 03:56:30;;;;;;;;;;;;;;;7.16;62.43;97037.94;5063913;28;19971;-86
2024/03/25 03:58:56;;;;;;;;;;;;;;;7.22;62.41;97044.78;5046360;28;19924;-87
2024/03/25 04:01:22;;;;;;;;;;;;;;;7.23;62.46;97040.97;5054982;28;19924;-86
2024/03/25 04:03:49;;;;;;;;;;;;;;;7.21;62.31;97047.81;5050170;28;19931;-86
2024/03/25 04:06:16;;;;;;;;;;;;;;;7.27;61.97;97052.75;5041484;28;19975;-86
2024/03/25 04:08:43;;;;;;;;;;;;;;;7.27;62.42;97058.16;5037580;28;20576;-86
2024/03/25 04:11:10;;;;;;;;;;;;;;;7.14;62.13;97053.66;5035959;28;19925;-86
2024/03/25 04:17:31;;;;;;;;;;;;;;;7.09;62.65;97061.91;5079806;28;19920;-77
2024/03/25 04:19:59;;;;;;;;;;;;;;;6.91;63.01;97060.97;5042178;28;20335;-77
2024/03/25 04:22:26;;;;;;;;;;;;;;;7.01;63.13;97059.94;5064818;28;19924;-78
2024/03/25 04:24:53;;;;;;;;;;;;;;;6.93;63.30;97055.28;5055044;28;19951;-78
2024/03/25 04:27:22;;;;;;;;;;;;;;;7.04;63.28;97060.13;5068868;28;19931;-77
2024/03/25 04:29:48;;;;;;;;;;;;;;;7.03;62.69;97065.81;5040496;28;21424;-77
2024/03/25 04:32:15;;;;;;;;;;;;;;;6.85;63.11;97058.72;5042753;28;19950;-77
2024/03/25 04:34:40;;;;;;;;;;;;;;;6.89;63.00;97065.09;5062026;28;19932;-78
